sensor_id;sensor_type;location;lat;lon;timestamp;P1;durP1;ratioP1;P2;durP2;ratioP2
4921;SDS011;16625;53.624;10.106;2022-07-12T05:41:02;14.43;;;8.23;;
4921;SDS011;16625;53.624;10.106;2022-07-12T05:43:33;14.63;;;10.60;;
4921;SDS011;16625;53.624;10.106;2022-07-12T05:46:00;13.50;;;8.83;;
4921;SDS011;16625;53.624;10.106;2022-07-12T05:48:27;14.33;;;9.10;;
4921;SDS011;16625;53.624;10.106;2022-07-12T05:50:54;13.20;;;8.67;;
4921;SDS011;16625;53.624;10.106;2022-07-12T05:53:41;13.13;;;8.63;;
4921;SDS011;16625;53.624;10.106;2022-07-12T05:56:08;13.53;;;10.13;;
4921;SDS011;16625;53.624;10.106;2022-07-12T05:58:35;11.53;;;8.10;;
4921;SDS011;16625;53.624;10.106;2022-07-12T06:01:02;10.27;;;8.43;;
4921;SDS011;16625;53.624;10.106;2022-07-12T06:03:30;10.30;;;8.03;;
4921;SDS011;16625;53.624;10.106;2022-07-12T06:05:58;12.37;;;7.80;;
4921;SDS011;16625;53.624;10.106;2022-07-12T06:08:25;11.40;;;7.83;;
4921;SDS011;16625;53.624;10.106;2022-07-12T06:10:53;9.40;;;7.10;;
4921;SDS011;16625;53.624;10.106;2022-07-12T06:13:22;9.90;;;7.33;;
4921;SDS011;16625;53.624;10.106;2022-07-12T06:15:49;9.60;;;6.27;;
4921;SDS011;16625;53.624;10.106;2022-07-12T06:18:16;14.80;;;7.07;;
4921;SDS011;16625;53.624;10.106;2022-07-12T06:20:43;8.70;;;6.77;;
4921;SDS011;16625;53.624;10.106;2022-07-12T06:23:10;8.63;;;5.40;;
4921;SDS011;16625;53.624;10.106;2022-07-12T06:25:38;7.80;;;5.73;;
4921;SDS011;16625;53.624;10.106;2022-07-12T06:28:06;6.80;;;4.03;;
4921;SDS011;16625;53.624;10.106;2022-07-12T06:30:34;5.17;;;3.83;;
4921;SDS011;16625;53.624;10.106;2022-07-12T06:33:01;6.33;;;3.63;;
4921;SDS011;16625;53.624;10.106;2022-07-12T06:35:28;6.33;;;3.80;;
4921;SDS011;16625;53.624;10.106;2022-07-12T06:37:55;4.37;;;3.37;;
4921;SDS011;16625;53.624;10.106;2022-07-12T06:40:22;5.17;;;3.90;;
4921;SDS011;16625;53.624;10.106;2022-07-12T06:42:49;5.43;;;3.40;;
4921;SDS011;16625;53.624;10.106;2022-07-12T06:45:17;4.67;;;3.67;;
4921;SDS011;16625;53.624;10.106;2022-07-12T06:47:46;4.67;;;3.17;;
4921;SDS011;16625;53.624;10.106;2022-07-12T06:50:13;5.50;;;3.20;;
4921;SDS011;16625;53.624;10.106;2022-07-12T06:52:40;5.90;;;3.10;;
4921;SDS011;16625;53.624;10.106;2022-07-12T06:55:07;3.77;;;3.00;;
4921;SDS011;16625;53.624;10.106;2022-07-12T06:57:34;5.20;;;2.97;;
4921;SDS011;16625;53.624;10.106;2022-07-12T07:00:03;5.93;;;4.07;;
4921;SDS011;16625;53.624;10.106;2022-07-12T07:02:32;4.67;;;2.70;;
4921;SDS011;16625;53.624;10.106;2022-07-12T07:05:01;5.33;;;3.00;;
4921;SDS011;16625;53.624;10.106;2022-07-12T07:07:40;3.37;;;2.90;;
4921;SDS011;16625;53.624;10.106;2022-07-12T07:10:09;7.90;;;3.10;;
4921;SDS011;16625;53.624;10.106;2022-07-12T07:12:39;4.87;;;2.53;;
4921;SDS011;16625;53.624;10.106;2022-07-12T07:15:08;3.50;;;2.93;;
4921;SDS011;16625;53.624;10.106;2022-07-12T07:17:49;3.50;;;2.90;;
4921;SDS011;16625;53.624;10.106;2022-07-12T07:20:18;4.50;;;3.07;;
4921;SDS011;16625;53.624;10.106;2022-07-12T07:22:45;4.10;;;2.40;;
4921;SDS011;16625;53.624;10.106;2022-07-12T07:25:13;3.63;;;3.10;;
4921;SDS011;16625;53.624;10.106;2022-07-12T07:27:43;3.60;;;2.67;;
4921;SDS011;16625;53.624;10.106;2022-07-12T07:33:23;3.90;;;2.70;;
4921;SDS011;16625;53.624;10.106;2022-07-12T07:42:41;4.30;;;2.40;;
4921;SDS011;16625;53.624;10.106;2022-07-12T09:24:52;4.53;;;2.37;;
4921;SDS011;16625;53.624;10.106;2022-07-12T09:27:24;4.80;;;2.60;;
4921;SDS011;16625;53.624;10.106;2022-07-12T09:30:20;6.80;;;2.33;;
4921;SDS011;16625;53.624;10.106;2022-07-12T09:33:06;3.60;;;2.40;;
4921;SDS011;16625;53.624;10.106;2022-07-12T09:41:19;3.00;;;2.10;;
4921;SDS011;16625;53.624;10.106;2022-07-12T09:51:34;3.73;;;1.80;;
4921;SDS011;16625;53.624;10.106;2022-07-12T09:54:21;2.90;;;2.10;;
4921;SDS011;16625;53.624;10.106;2022-07-12T10:16:33;5.27;;;2.50;;
4921;SDS011;16625;53.624;10.106;2022-07-12T10:19:23;3.50;;;2.30;;
4921;SDS011;16625;53.624;10.106;2022-07-12T10:21:55;3.90;;;2.40;;
4921;SDS011;16625;53.624;10.106;2022-07-12T10:27:30;4.37;;;2.30;;
4921;SDS011;16625;53.624;10.106;2022-07-12T10:32:59;4.57;;;3.00;;
4921;SDS011;16625;53.624;10.106;2022-07-12T10:38:24;2.77;;;2.17;;
4921;SDS011;16625;53.624;10.106;2022-07-12T10:46:04;3.30;;;3.00;;
4921;SDS011;16625;53.624;10.106;2022-07-12T10:49:28;3.60;;;2.60;;
4921;SDS011;16625;53.624;10.106;2022-07-12T11:01:12;3.33;;;2.10;;
4921;SDS011;16625;53.624;10.106;2022-07-12T11:04:06;2.77;;;1.90;;
4921;SDS011;16625;53.624;10.106;2022-07-12T11:09:49;7.68;;;1.95;;
4921;SDS011;16625;53.624;10.106;2022-07-12T11:12:21;3.25;;;2.08;;
4921;SDS011;16625;53.624;10.106;2022-07-12T11:20:54;5.03;;;2.20;;
4921;SDS011;16625;53.624;10.106;2022-07-12T11:23:23;4.43;;;2.10;;
4921;SDS011;16625;53.624;10.106;2022-07-12T11:25:56;2.50;;;1.80;;
4921;SDS011;16625;53.624;10.106;2022-07-12T14:19:49;3.88;;;1.52;;
4921;SDS011;16625;53.624;10.106;2022-07-12T14:57:08;2.45;;;1.50;;
4921;SDS011;16625;53.624;10.106;2022-07-12T14:59:46;2.13;;;1.40;;
4921;SDS011;16625;53.624;10.106;2022-07-12T21:25:47;4.60;;;2.58;;
4921;SDS011;16625;53.624;10.106;2022-07-12T21:28:14;3.50;;;2.83;;
4921;SDS011;16625;53.624;10.106;2022-07-12T21:30:43;3.77;;;2.70;;
4921;SDS011;16625;53.624;10.106;2022-07-12T21:33:11;6.43;;;3.43;;
4921;SDS011;16625;53.624;10.106;2022-07-12T21:35:38;3.67;;;2.60;;
4921;SDS011;16625;53.624;10.106;2022-07-12T21:38:05;16.53;;;3.43;;
4921;SDS011;16625;53.624;10.106;2022-07-12T21:40:32;5.03;;;2.97;;
4921;SDS011;16625;53.624;10.106;2022-07-12T21:43:00;4.97;;;3.53;;
4921;SDS011;16625;53.624;10.106;2022-07-12T21:45:27;4.90;;;3.63;;
4921;SDS011;16625;53.624;10.106;2022-07-12T21:47:54;4.20;;;3.20;;
4921;SDS011;16625;53.624;10.106;2022-07-12T21:50:22;5.07;;;3.17;;
4921;SDS011;16625;53.624;10.106;2022-07-12T21:52:49;4.40;;;3.30;;
4921;SDS011;16625;53.624;10.106;2022-07-12T21:55:16;5.63;;;3.20;;
4921;SDS011;16625;53.624;10.106;2022-07-12T21:57:43;7.33;;;4.43;;
4921;SDS011;16625;53.624;10.106;2022-07-12T22:00:12;4.60;;;3.20;;
4921;SDS011;16625;53.624;10.106;2022-07-12T22:02:43;4.23;;;3.00;;
4921;SDS011;16625;53.624;10.106;2022-07-12T22:05:09;6.47;;;3.60;;
4921;SDS011;16625;53.624;10.106;2022-07-12T22:07:36;4.77;;;3.23;;
4921;SDS011;16625;53.624;10.106;2022-07-12T22:10:04;5.20;;;3.70;;
4921;SDS011;16625;53.624;10.106;2022-07-12T22:12:31;4.00;;;3.00;;
4921;SDS011;16625;53.624;10.106;2022-07-12T22:14:58;4.80;;;3.17;;
4921;SDS011;16625;53.624;10.106;2022-07-12T22:17:26;5.00;;;3.30;;
4921;SDS011;16625;53.624;10.106;2022-07-12T22:19:53;7.20;;;4.07;;
4921;SDS011;16625;53.624;10.106;2022-07-12T22:22:20;6.03;;;3.77;;
4921;SDS011;16625;53.624;10.106;2022-07-12T22:24:48;5.10;;;3.43;;
4921;SDS011;16625;53.624;10.106;2022-07-12T22:27:15;4.37;;;3.30;;
4921;SDS011;16625;53.624;10.106;2022-07-12T22:29:42;5.60;;;3.60;;
4921;SDS011;16625;53.624;10.106;2022-07-12T22:32:09;7.60;;;3.70;;
4921;SDS011;16625;53.624;10.106;2022-07-12T22:34:42;5.30;;;3.40;;
4921;SDS011;16625;53.624;10.106;2022-07-12T22:37:09;5.60;;;3.97;;
4921;SDS011;16625;53.624;10.106;2022-07-12T22:39:36;5.60;;;3.30;;
4921;SDS011;16625;53.624;10.106;2022-07-12T22:42:03;5.53;;;3.90;;
4921;SDS011;16625;53.624;10.106;2022-07-12T22:44:31;6.57;;;3.90;;
4921;SDS011;16625;53.624;10.106;2022-07-12T22:46:59;6.83;;;3.50;;
4921;SDS011;16625;53.624;10.106;2022-07-12T22:49:26;5.07;;;3.10;;
4921;SDS011;16625;53.624;10.106;2022-07-12T22:51:58;6.60;;;3.40;;
4921;SDS011;16625;53.624;10.106;2022-07-12T22:54:24;6.07;;;3.40;;
4921;SDS011;16625;53.624;10.106;2022-07-12T22:56:53;5.00;;;3.57;;
4921;SDS011;16625;53.624;10.106;2022-07-12T22:59:20;6.73;;;3.40;;
4921;SDS011;16625;53.624;10.106;2022-07-12T23:01:48;6.13;;;3.70;;
4921;SDS011;16625;53.624;10.106;2022-07-12T23:04:15;5.30;;;3.80;;
4921;SDS011;16625;53.624;10.106;2022-07-12T23:06:42;6.00;;;3.67;;
4921;SDS011;16625;53.624;10.106;2022-07-12T23:09:11;6.87;;;3.70;;
4921;SDS011;16625;53.624;10.106;2022-07-12T23:11:38;6.63;;;3.20;;
4921;SDS011;16625;53.624;10.106;2022-07-12T23:14:05;5.03;;;3.77;;
4921;SDS011;16625;53.624;10.106;2022-07-12T23:16:32;5.70;;;3.40;;
4921;SDS011;16625;53.624;10.106;2022-07-12T23:18:59;5.33;;;3.70;;
4921;SDS011;16625;53.624;10.106;2022-07-12T23:21:26;5.63;;;3.93;;
4921;SDS011;16625;53.624;10.106;2022-07-12T23:23:53;5.07;;;3.47;;
4921;SDS011;16625;53.624;10.106;2022-07-12T23:26:22;7.10;;;4.00;;
4921;SDS011;16625;53.624;10.106;2022-07-12T23:28:49;4.90;;;4.20;;
4921;SDS011;16625;53.624;10.106;2022-07-12T23:31:16;5.10;;;3.50;;
4921;SDS011;16625;53.624;10.106;2022-07-12T23:33:57;6.67;;;3.67;;
4921;SDS011;16625;53.624;10.106;2022-07-12T23:36:23;4.77;;;3.40;;
4921;SDS011;16625;53.624;10.106;2022-07-12T23:38:50;7.57;;;3.97;;
4921;SDS011;16625;53.624;10.106;2022-07-12T23:41:17;5.63;;;3.37;;
4921;SDS011;16625;53.624;10.106;2022-07-12T23:43:46;5.93;;;3.57;;
4921;SDS011;16625;53.624;10.106;2022-07-12T23:46:12;4.70;;;3.27;;
4921;SDS011;16625;53.624;10.106;2022-07-12T23:48:40;5.43;;;3.83;;
4921;SDS011;16625;53.624;10.106;2022-07-12T23:51:07;9.13;;;4.27;;
4921;SDS011;16625;53.624;10.106;2022-07-12T23:53:34;7.17;;;3.70;;
4921;SDS011;16625;53.624;10.106;2022-07-12T23:56:01;7.90;;;3.67;;
4921;SDS011;16625;53.624;10.106;2022-07-12T23:58:28;5.73;;;3.63;;
